Domov               UVHVVR             MKGP            O straneh              
ZDRAVSTVENO VARSTVO RASTLIN
  MREŽA AGROMET. POSTAJ
 ► PROGNOSTIČNA OBVESTILA
AGROMETEOROLOŠKI PODATKI -
ARSO
OBVLADOVANJE TVEGANJ ZARADI
NEUGODNIH VREMENSKIH RAZMER
  ► NARAVNE NESREČE
  ► SUŠA/MOČA
  ► NAMAKANJE
  ► ŽLED (gozdarstvo)
KARTOGRAFSKI PRIKAZI
SPLETNE POVEZAVE
PROJEKTI IN PUBLIKACIJE

AGROMETEOROLOŠKA MREŽA: VREMENSKE POSTAJE IN FENOLOŠKA OPAZOVANJA

Pregled podatkov za lokacijo Bizeljsko, meteorološka postaja 38541

Pregled senzorjev na lokaciji

ID Ime Zadnja
vrednost
Datum
zadnje
spremembe
Tip
senzorja
2029 Omočenost lista (U) 1 U 23.7.2018 05:30 A730WET
2030 Padavine (mm) 0 mm 23.7.2018 05:30 Rain-O-Matic
2028 Relativna vlaga 2 m (% RH) 80,83 % RH 23.7.2018 05:30 50YA
2027 Temperatura 2 m (°C) 17,36 °C 23.7.2018 05:30 50YA

Pregled podatkov zadnjih 24 ur

Zap.
št.
Datum in čas Bizeljsko
Omočenost
lista
Padavine Relativna
vlaga
2
m
Temperatura
2
m
1 23.7.2018 06:00
2 23.7.2018 05:30
3 23.7.2018 05:00
4 23.7.2018 04:30 1 0 80,8 17,4
5 23.7.2018 04:00 0 0 83,4 17,3
6 23.7.2018 03:30 0 0 81,3 17,3
7 23.7.2018 03:00 0 0 76,4 18
8 23.7.2018 02:30 0 0 72,6 18,5
9 23.7.2018 02:00 0 0 73,6 18,6
10 23.7.2018 01:30 0 0 76,9 18,5
11 23.7.2018 01:00 0 0 82,4 18,2
12 23.7.2018 00:30 0 0 82,5 18,2
13 23.7.2018 00:00 0 0 83,7 18,4
14 22.7.2018 23:30 0 0 84,1 18,5
15 22.7.2018 23:00 0 0 83,4 18,6
16 22.7.2018 22:30 0 0 83,2 18,7
17 22.7.2018 22:00 0 0 83,2 18,8
18 22.7.2018 21:30 0 0 82,1 18,9
19 22.7.2018 21:00 0 0 82,4 18,9
20 22.7.2018 20:30 0 0 80,5 19,2
21 22.7.2018 20:00 0 0 80,5 19,4
22 22.7.2018 19:30 0 0 80,8 19,5
23 22.7.2018 19:00 0 0 77,5 20
24 22.7.2018 18:30 0 0 75,7 20,5
25 22.7.2018 18:00 0 0 75,4 21,3
26 22.7.2018 17:30 0 0 75,8 22,9
27 22.7.2018 17:00 0 0 70,1 24,1
28 22.7.2018 16:30 0 0 59,3 26,4
29 22.7.2018 16:00 0 0 61,3 26,5
30 22.7.2018 15:30 0 0 69,2 24,4
31 22.7.2018 15:00 0 0 68 24,7
32 22.7.2018 14:30 0 0 60,5 26,3
33 22.7.2018 14:00 8 0,4 85,6 20
34 22.7.2018 13:30 10 2,6 89,7 17,8
35 22.7.2018 13:00 10 2,2 85,4 20,1
36 22.7.2018 12:30 1 0,2 74,2 22,7
37 22.7.2018 12:00 0 0 68,2 24,7
38 22.7.2018 11:30 10 0 67,6 25,4
39 22.7.2018 11:00 10 0 82,8 22,3
40 22.7.2018 10:30 10 0,6 82,9 20,9
41 22.7.2018 10:00 0 0 66,5 25,2
42 22.7.2018 09:30 0 0 69 24
43 22.7.2018 09:00 0 0 67,8 24,6
44 22.7.2018 08:30 0 0 67,6 24,2
45 22.7.2018 08:00 0 0 70,7 22,9
46 22.7.2018 07:30 0 0 76,7 21,1
47 22.7.2018 07:00 1 0 78,9 20,5
48 22.7.2018 06:30 7 0 85,5 18,9
© 2011 Ministrstvo za kmetijstvo, gozdarstvo in prehrano. Vse pravice pridržane.